Time;durP1;ratioP1;P1;durP2;ratioP2;P2;SDS_P1;SDS_P2;PMS_P1;PMS_P2;Temp;Humidity;BMP_temperature;BMP_pressure;BME280_temperature;BME280_humidity;BME280_pressure;Samples;Min_cycle;Max_cycle;Signal;HPM_P1;HPM_P2
2022/05/14 05:10:23;;;;;;;9.10;7.70;;;15.30;98.50;;;;;;4951643;29;20225;-87
2022/05/14 06:20:30;;;;;;;20.30;15.35;;;17.30;88.80;;;;;;4910442;29;20757;-85
2022/05/14 07:01:35;;;;;;;8.80;4.85;;;18.40;57.00;;;;;;4930256;29;20346;-87
2022/05/14 07:07:09;;;;;;;6.28;4.90;;;18.60;61.80;;;;;;4950129;28;20815;-86
2022/05/14 07:10:18;;;;;;;10.80;5.35;;;18.90;59.40;;;;;;4959426;28;20212;-86
2022/05/14 07:16:20;;;;;;;5.57;5.03;;;19.10;57.50;;;;;;4950807;28;20232;-88
2022/05/14 07:18:56;;;;;;;7.07;4.90;;;19.40;58.20;;;;;;4957526;28;20208;-86
2022/05/14 07:21:25;;;;;;;9.52;5.70;;;19.30;55.30;;;;;;4956170;28;20319;-86
2022/05/14 07:24:38;;;;;;;7.25;4.53;;;19.40;56.00;;;;;;4974664;28;20232;-87
2022/05/14 07:41:06;;;;;;;6.65;3.40;;;19.70;55.60;;;;;;4995438;28;20254;-86
2022/05/14 07:44:07;;;;;;;7.38;3.50;;;19.90;43.70;;;;;;5001843;28;20228;-86
2022/05/14 07:46:45;;;;;;;7.22;4.10;;;20.30;38.70;;;;;;5005076;28;20243;-87
2022/05/14 07:49:33;;;;;;;5.95;3.53;;;20.60;38.30;;;;;;5004658;28;20207;-86
2022/05/14 07:55:22;;;;;;;8.85;4.10;;;21.10;33.00;;;;;;4996196;28;20270;-87
2022/05/14 07:58:54;;;;;;;;;;;;;;;;;;;;;
2022/05/14 08:01:24;;;;;;;5.45;3.35;;;21.40;32.00;;;;;;4990263;28;20232;-87
2022/05/14 08:07:55;;;;;;;5.45;3.00;;;20.90;32.80;;;;;;5003399;28;20235;-86
2022/05/14 08:10:28;;;;;;;6.70;3.10;;;20.40;32.40;;;;;;5006829;28;20268;-88
2022/05/14 08:16:27;;;;;;;5.43;3.50;;;20.30;34.20;;;;;;5007195;28;20255;-88
2022/05/14 08:19:20;;;;;;;3.17;2.78;;;20.40;37.50;;;;;;4998210;28;20264;-87
2022/05/14 08:25:25;;;;;;;7.78;3.85;;;20.40;35.30;;;;;;4956408;29;20269;-86
2022/05/14 08:28:20;;;;;;;5.50;2.50;;;20.50;35.50;;;;;;4939233;29;20206;-85
2022/05/14 08:34:53;;;;;;;4.70;2.35;;;20.40;32.50;;;;;;4908379;29;20639;-86
2022/05/14 08:37:20;;;;;;;5.90;2.20;;;20.70;30.10;;;;;;4942098;29;20614;-85
2022/05/14 08:39:50;;;;;;;8.35;2.97;;;20.80;28.90;;;;;;4932069;29;20253;-87
2022/05/14 08:42:28;;;;;;;4.53;2.40;;;21.40;29.60;;;;;;4941245;29;20311;-83
2022/05/14 08:45:11;;;;;;;7.22;2.80;;;22.00;28.90;;;;;;4939189;29;20271;-83
2022/05/14 08:47:56;;;;;;;7.60;3.20;;;23.40;28.00;;;;;;4935653;29;20359;-79
2022/05/14 08:50:55;;;;;;;5.15;2.50;;;25.30;18.40;;;;;;4935916;29;20636;-80
2022/05/14 08:53:34;;;;;;;8.15;2.90;;;26.10;17.20;;;;;;4936102;29;20205;-80
2022/05/14 08:56:16;;;;;;;5.18;2.90;;;27.00;15.10;;;;;;4936940;29;20240;-81
2022/05/14 09:02:41;;;;;;;3.42;2.95;;;27.70;15.50;;;;;;4999572;28;20638;-80
2022/05/14 09:05:13;;;;;;;5.47;3.28;;;29.50;12.00;;;;;;5003958;28;20223;-80
2022/05/14 09:07:46;;;;;;;4.38;3.00;;;29.70;12.40;;;;;;4998025;28;20200;-80
2022/05/14 09:10:54;;;;;;;4.35;2.72;;;31.90;11.30;;;;;;5006083;28;20242;-79
2022/05/14 09:13:27;;;;;;;7.43;3.22;;;31.40;10.20;;;;;;5002929;28;20273;-81
2022/05/14 09:16:20;;;;;;;6.22;3.53;;;32.50;9.00;;;;;;4996560;28;20882;-80
2022/05/14 09:18:49;;;;;;;6.32;3.50;;;32.20;8.10;;;;;;4993446;28;20206;-81
2022/05/14 09:21:21;;;;;;;6.10;3.50;;;33.70;7.10;;;;;;5006998;28;20310;-82
2022/05/14 09:23:56;;;;;;;5.03;3.55;;;34.50;6.20;;;;;;4998052;28;20606;-81
2022/05/14 09:26:30;;;;;;;4.53;3.42;;;34.50;5.30;;;;;;4991724;28;20241;-82
2022/05/14 09:29:23;;;;;;;6.25;3.85;;;33.90;6.20;;;;;;4996794;28;20202;-81
2022/05/14 09:31:59;;;;;;;4.00;3.60;;;34.80;6.20;;;;;;5000333;28;20234;-82
2022/05/14 09:34:28;;;;;;;6.43;3.88;;;36.10;3.10;;;;;;4996740;28;20258;-82
2022/05/14 09:37:21;;;;;;;4.45;3.72;;;34.60;4.30;;;;;;4997814;28;20227;-84
2022/05/14 09:40:00;;;;;;;4.03;3.72;;;34.20;5.00;;;;;;4996066;28;20290;-83
2022/05/14 09:42:42;;;;;;;4.18;3.78;;;35.50;4.80;;;;;;4984274;28;20270;-82
2022/05/14 09:45:22;;;;;;;5.30;3.80;;;33.00;5.90;;;;;;4992150;28;20234;-82
2022/05/14 09:47:51;;;;;;;6.25;3.45;;;32.50;6.30;;;;;;4992379;28;20214;-83
2022/05/14 09:50:20;;;;;;;3.95;3.50;;;31.40;7.30;;;;;;4995523;28;20228;-88
2022/05/14 09:53:00;;;;;;;3.90;3.25;;;30.50;9.80;;;;;;4985539;28;20215;-83
2022/05/14 09:56:05;;;;;;;4.70;3.20;;;30.90;10.50;;;;;;4989048;28;20227;-83
2022/05/14 09:58:42;;;;;;;6.25;3.17;;;29.90;9.60;;;;;;4981997;28;20207;-84
2022/05/14 10:01:28;;;;;;;5.93;3.25;;;28.50;12.60;;;;;;4983981;28;20603;-83
2022/05/14 10:04:11;;;;;;;4.57;3.10;;;28.50;13.00;;;;;;4983247;28;20263;-83
2022/05/14 10:06:46;;;;;;;6.07;3.25;;;29.50;11.30;;;;;;4983394;28;20226;-81
2022/05/14 10:09:28;;;;;;;4.85;3.40;;;29.70;11.00;;;;;;4987513;28;21748;-82
2022/05/14 10:12:38;;;;;;;4.80;4.05;;;29.90;11.00;;;;;;4998016;28;20246;-80
2022/05/14 10:15:29;;;;;;;9.07;4.90;;;29.60;10.80;;;;;;4977664;28;20227;-79
2022/05/14 10:18:13;;;;;;;4.70;3.20;;;27.50;13.30;;;;;;4996880;28;20212;-81
2022/05/14 10:20:57;;;;;;;5.93;3.55;;;27.20;15.20;;;;;;4985823;28;20683;-80
2022/05/14 10:27:17;;;;;;;23.02;20.88;;;26.70;16.20;;;;;;4964746;28;20259;-78
2022/05/14 10:29:56;;;;;;;12.52;10.60;;;28.60;15.40;;;;;;4957331;28;20200;-76
2022/05/14 10:32:27;;;;;;;10.88;3.95;;;29.80;11.30;;;;;;4967263;28;20211;-79
2022/05/14 10:35:01;;;;;;;5.85;4.22;;;30.60;10.90;;;;;;4968615;28;20239;-79
2022/05/14 10:37:35;;;;;;;5.63;3.88;;;30.40;11.90;;;;;;4971339;28;20203;-78
2022/05/14 10:40:20;;;;;;;8.10;4.05;;;30.20;9.70;;;;;;4969516;28;20235;-80
2022/05/14 10:43:13;;;;;;;4.97;4.10;;;30.50;9.90;;;;;;4980020;28;20216;-81
2022/05/14 10:46:20;;;;;;;6.97;5.18;;;30.80;9.20;;;;;;4983605;28;20242;-87
2022/05/14 10:48:55;;;;;;;5.63;4.38;;;30.50;12.10;;;;;;4983646;28;20405;-81
2022/05/14 10:51:26;;;;;;;6.75;3.67;;;30.40;9.80;;;;;;4976781;28;20574;-87
2022/05/14 10:53:53;;;;;;;6.25;3.70;;;30.50;10.80;;;;;;4980302;28;20278;-82
2022/05/14 10:56:36;;;;;;;4.90;3.60;;;31.10;9.60;;;;;;4993376;28;20694;-79
2022/05/14 10:59:06;;;;;;;7.53;3.88;;;30.90;7.60;;;;;;4981948;28;20204;-83
2022/05/14 11:01:43;;;;;;;6.28;3.22;;;30.30;10.50;;;;;;4973706;28;20235;-78
2022/05/14 11:07:39;;;;;;;4.63;3.10;;;28.10;14.50;;;;;;4992384;28;20795;-82
2022/05/14 11:10:17;;;;;;;5.85;3.28;;;26.70;15.00;;;;;;5002863;28;20231;-79
2022/05/14 11:13:18;;;;;;;5.78;3.20;;;26.20;14.70;;;;;;4992529;28;20242;-81
2022/05/14 11:16:26;;;;;;;8.48;3.25;;;25.80;14.60;;;;;;4990490;28;20578;-88
2022/05/14 11:19:04;;;;;;;8.02;3.08;;;25.40;18.90;;;;;;4991873;28;20206;-82
2022/05/14 11:21:40;;;;;;;8.10;3.40;;;25.10;17.20;;;;;;5006518;28;20228;-83
2022/05/14 11:24:13;;;;;;;6.70;3.10;;;24.60;17.90;;;;;;5005117;28;20199;-82
2022/05/14 11:26:52;;;;;;;6.25;2.90;;;24.60;20.40;;;;;;5009665;28;20240;-82
2022/05/14 11:29:22;;;;;;;6.43;3.28;;;25.00;18.50;;;;;;5014324;28;20218;-85
2022/05/14 11:32:09;;;;;;;5.43;2.88;;;24.50;17.10;;;;;;5011786;28;20212;-84
2022/05/14 11:34:50;;;;;;;7.07;3.20;;;24.60;18.40;;;;;;5010093;28;20220;-84
2022/05/14 11:37:58;;;;;;;3.50;2.60;;;24.00;19.10;;;;;;5000321;28;20216;-78
2022/05/14 11:40:31;;;;;;;4.15;2.88;;;23.60;17.80;;;;;;4994458;28;20246;-82
2022/05/14 11:43:11;;;;;;;7.13;3.67;;;23.50;20.00;;;;;;5021997;28;20196;-80
2022/05/14 11:46:09;;;;;;;6.43;3.15;;;23.70;18.70;;;;;;5019268;28;20327;-81
2022/05/14 11:48:44;;;;;;;6.15;3.60;;;23.90;22.20;;;;;;5007017;28;20603;-82
2022/05/14 11:51:42;;;;;;;8.40;3.47;;;24.30;22.30;;;;;;5007172;28;20227;-83
2022/05/14 11:54:20;;;;;;;7.35;3.17;;;24.50;20.00;;;;;;5010980;28;20221;-83
2022/05/14 11:57:04;;;;;;;6.82;2.95;;;24.40;18.20;;;;;;5008677;28;20254;-82
2022/05/14 11:59:40;;;;;;;6.88;3.08;;;23.90;20.40;;;;;;5000070;28;20364;-87
2022/05/14 12:02:13;;;;;;;6.60;3.10;;;23.80;20.40;;;;;;4996593;28;20234;-83
2022/05/14 12:04:45;;;;;;;5.95;2.92;;;23.80;21.30;;;;;;4989349;28;20673;-83
2022/05/14 12:07:43;;;;;;;5.43;2.55;;;23.60;19.10;;;;;;5000563;28;20195;-85
2022/05/14 12:10:23;;;;;;;4.30;2.88;;;23.70;19.40;;;;;;4990179;28;20231;-81
2022/05/14 12:13:00;;;;;;;4.68;2.47;;;23.90;19.60;;;;;;5007334;28;20436;-86
2022/05/14 12:15:29;;;;;;;4.45;2.90;;;24.10;19.50;;;;;;4993364;28;20235;-84
2022/05/14 12:17:58;;;;;;;7.03;3.05;;;24.40;19.20;;;;;;5005382;28;20211;-84
2022/05/14 12:20:30;;;;;;;6.07;2.90;;;24.50;16.40;;;;;;5001119;28;20238;-83
2022/05/14 12:22:59;;;;;;;4.10;2.60;;;24.40;16.60;;;;;;4990118;28;20210;-84
2022/05/14 12:25:39;;;;;;;6.63;2.88;;;24.30;17.60;;;;;;4993797;28;20286;-84
2022/05/14 12:28:18;;;;;;;4.63;2.30;;;24.20;18.90;;;;;;5009096;28;20632;-85
2022/05/14 12:33:38;;;;;;;4.80;2.55;;;24.20;17.70;;;;;;5019279;28;20243;-85
2022/05/14 12:36:06;;;;;;;4.95;2.70;;;24.40;18.70;;;;;;4996932;28;20470;-83
2022/05/14 12:38:42;;;;;;;5.57;2.90;;;24.50;18.60;;;;;;5000322;28;20212;-84
2022/05/14 12:41:27;;;;;;;5.85;2.90;;;24.60;19.10;;;;;;4997304;28;20235;-84
2022/05/14 12:43:55;;;;;;;4.40;2.75;;;24.40;19.20;;;;;;5004914;28;20227;-83
2022/05/14 12:46:54;;;;;;;6.57;2.90;;;24.60;17.30;;;;;;5007521;28;20231;-82
2022/05/14 12:49:24;;;;;;;4.75;3.00;;;24.60;19.60;;;;;;5000432;28;20212;-87
2022/05/14 12:51:59;;;;;;;5.93;2.60;;;24.40;16.70;;;;;;5014397;28;20874;-86
2022/05/14 12:54:32;;;;;;;4.47;3.00;;;24.20;17.80;;;;;;5019100;28;20582;-85
2022/05/14 12:57:15;;;;;;;5.50;2.90;;;24.40;19.40;;;;;;5012423;28;20277;-85
2022/05/14 12:59:44;;;;;;;4.82;2.97;;;24.00;19.90;;;;;;5019268;28;20223;-87
2022/05/14 13:02:24;;;;;;;4.82;2.83;;;23.50;18.40;;;;;;5019696;28;20235;-83
2022/05/14 13:05:04;;;;;;;4.47;2.65;;;22.90;19.70;;;;;;5010067;28;20238;-83
2022/05/14 13:07:46;;;;;;;11.68;8.90;;;22.80;20.50;;;;;;5021082;28;20219;-82
2022/05/14 13:10:16;;;;;;;7.97;5.50;;;23.00;20.00;;;;;;5021846;28;20229;-82
2022/05/14 13:12:50;;;;;;;8.27;3.83;;;23.40;19.60;;;;;;5010123;28;20232;-83
2022/05/14 13:15:34;;;;;;;5.63;2.78;;;23.60;19.80;;;;;;5014973;28;20291;-83
2022/05/14 13:18:13;;;;;;;3.90;2.70;;;23.40;19.10;;;;;;5014167;28;20676;-85
2022/05/14 13:20:46;;;;;;;5.85;4.50;;;23.40;18.60;;;;;;5010497;28;20279;-83
2022/05/14 13:23:20;;;;;;;7.22;2.80;;;23.60;18.20;;;;;;5015018;28;20298;-83
2022/05/14 13:25:59;;;;;;;7.22;3.00;;;23.70;19.00;;;;;;5021233;28;20243;-83
2022/05/14 13:28:47;;;;;;;7.85;5.93;;;23.80;19.70;;;;;;5014958;28;20211;-85
2022/05/14 13:31:22;;;;;;;12.05;10.88;;;23.90;19.90;;;;;;5022016;28;20250;-86
2022/05/14 13:33:58;;;;;;;4.07;2.60;;;23.80;19.50;;;;;;5015563;28;20207;-83
2022/05/14 13:39:15;;;;;;;4.20;2.78;;;23.90;20.00;;;;;;5016688;28;20282;-84
2022/05/14 13:41:45;;;;;;;4.57;2.80;;;23.90;18.70;;;;;;5006623;28;20263;-84
2022/05/14 13:44:28;;;;;;;4.38;2.60;;;24.00;19.60;;;;;;5005808;28;20200;-84
2022/05/14 13:47:02;;;;;;;8.40;3.00;;;23.90;19.30;;;;;;4998325;28;20223;-84
2022/05/14 13:49:35;;;;;;;3.95;2.53;;;23.90;20.80;;;;;;5004688;28;20204;-84
2022/05/14 13:52:04;;;;;;;6.80;2.60;;;23.90;19.70;;;;;;5007413;28;20279;-83
2022/05/14 13:54:33;;;;;;;4.57;2.78;;;23.90;20.00;;;;;;5007025;28;20203;-84
2022/05/14 13:57:06;;;;;;;4.15;2.88;;;23.90;19.70;;;;;;4990205;28;20228;-84
2022/05/14 13:59:34;;;;;;;5.95;2.70;;;23.80;19.40;;;;;;4993678;28;20208;-84
2022/05/14 14:02:24;;;;;;;4.97;2.63;;;23.90;19.40;;;;;;5006565;28;20215;-84
2022/05/14 14:04:53;;;;;;;3.15;2.55;;;23.90;18.50;;;;;;5008224;28;20674;-85
2022/05/14 14:07:21;;;;;;;3.67;2.60;;;23.90;20.50;;;;;;4996429;28;20201;-85
2022/05/14 14:09:52;;;;;;;5.90;2.90;;;23.60;18.00;;;;;;5006274;28;20208;-86
2022/05/14 14:12:23;;;;;;;4.95;2.55;;;23.60;19.80;;;;;;4997639;28;20212;-86
2022/05/14 14:14:51;;;;;;;5.70;3.33;;;23.70;19.90;;;;;;5004044;28;20440;-85
2022/05/14 14:17:19;;;;;;;11.75;8.65;;;23.70;19.80;;;;;;5007112;28;20220;-85
2022/05/14 14:19:46;;;;;;;4.72;3.33;;;23.90;18.50;;;;;;5011672;28;20234;-85
2022/05/14 14:22:16;;;;;;;8.07;3.00;;;24.00;18.30;;;;;;5009036;28;20218;-86
2022/05/14 14:24:48;;;;;;;5.00;3.22;;;23.80;17.50;;;;;;5012974;28;20227;-86
2022/05/14 14:27:16;;;;;;;4.85;2.63;;;23.70;17.80;;;;;;5006616;28;20200;-87
2022/05/14 14:29:47;;;;;;;5.20;2.70;;;23.60;17.90;;;;;;5005248;28;20257;-87
2022/05/14 14:32:21;;;;;;;5.45;2.50;;;23.70;17.90;;;;;;5014620;28;20212;-87
2022/05/14 14:34:57;;;;;;;5.10;2.40;;;23.60;17.20;;;;;;5002098;28;20293;-83
2022/05/14 14:37:25;;;;;;;5.70;2.88;;;23.50;17.70;;;;;;5019903;28;20211;-83
2022/05/14 14:40:04;;;;;;;5.25;2.85;;;23.50;17.90;;;;;;5016451;28;20246;-86
2022/05/14 14:42:33;;;;;;;5.00;2.38;;;23.40;18.90;;;;;;5014592;28;20323;-83
2022/05/14 14:45:00;;;;;;;3.65;2.42;;;23.50;17.90;;;;;;5025476;28;20232;-83
2022/05/14 14:47:27;;;;;;;3.63;2.17;;;23.60;18.60;;;;;;5016046;28;20222;-84
2022/05/14 14:50:06;;;;;;;4.50;2.35;;;23.70;17.70;;;;;;5011604;28;20255;-84
2022/05/14 14:52:54;;;;;;;2.97;2.00;;;23.60;17.70;;;;;;5008018;28;20219;-84
2022/05/14 14:55:29;;;;;;;4.43;2.17;;;23.60;17.80;;;;;;5006074;28;20263;-83
2022/05/14 14:58:20;;;;;;;6.30;2.20;;;23.50;16.90;;;;;;5019142;28;20229;-84
2022/05/14 15:00:57;;;;;;;2.92;2.03;;;23.30;17.80;;;;;;5009429;28;20271;-83
2022/05/14 15:03:28;;;;;;;2.38;2.10;;;23.30;17.30;;;;;;5022746;28;20675;-84
2022/05/14 15:06:05;;;;;;;4.75;3.25;;;23.40;15.90;;;;;;5010117;28;20235;-83
2022/05/14 15:08:36;;;;;;;4.53;2.40;;;23.30;16.90;;;;;;5021002;28;20222;-84
2022/05/14 15:11:08;;;;;;;3.08;2.20;;;23.20;17.60;;;;;;5012227;28;20236;-86
2022/05/14 15:13:42;;;;;;;5.38;2.25;;;23.30;18.40;;;;;;4998778;28;20966;-84
2022/05/14 15:16:11;;;;;;;3.13;2.00;;;23.20;16.20;;;;;;4998750;28;20293;-84
2022/05/14 15:18:42;;;;;;;3.90;2.35;;;23.30;16.50;;;;;;5017769;28;20208;-87
2022/05/14 15:21:18;;;;;;;3.25;2.22;;;23.20;16.20;;;;;;4995691;28;20262;-84
2022/05/14 15:26:56;;;;;;;3.65;1.88;;;23.10;17.20;;;;;;5024969;28;20238;-85
2022/05/14 15:29:35;;;;;;;3.35;2.13;;;23.00;16.80;;;;;;5006785;28;20200;-84
2022/05/14 15:32:36;;;;;;;4.32;2.25;;;23.00;17.00;;;;;;5018248;28;20227;-84
2022/05/14 15:35:45;;;;;;;4.78;2.42;;;23.00;18.10;;;;;;4990729;28;20238;-83
2022/05/14 15:38:40;;;;;;;4.88;2.83;;;22.90;18.00;;;;;;5011115;28;20655;-84
2022/05/14 15:41:13;;;;;;;2.65;2.00;;;23.00;18.00;;;;;;5000665;28;20235;-84
2022/05/14 15:44:10;;;;;;;3.17;2.28;;;22.90;17.80;;;;;;5007281;28;20227;-84
2022/05/14 15:47:06;;;;;;;4.47;2.25;;;22.80;18.00;;;;;;5012430;28;20253;-85
2022/05/14 15:50:23;;;;;;;3.88;1.98;;;22.90;18.20;;;;;;5000370;28;20199;-83
2022/05/14 15:53:16;;;;;;;4.25;2.30;;;22.90;16.90;;;;;;5011837;28;20208;-84
2022/05/14 15:55:55;;;;;;;3.55;2.10;;;22.80;18.10;;;;;;5007322;28;20308;-84
2022/05/14 15:58:24;;;;;;;4.60;2.38;;;22.70;17.70;;;;;;5004514;28;20204;-83
2022/05/14 16:01:17;;;;;;;6.65;2.50;;;22.70;18.20;;;;;;5021549;28;20223;-85
2022/05/14 16:03:55;;;;;;;4.60;2.78;;;22.60;18.50;;;;;;5012025;28;20242;-83
2022/05/14 16:07:10;;;;;;;;;;;;;;;;;;;;;
2022/05/14 16:16:20;;;;;;;6.05;2.50;;;22.30;18.70;;;;;;5020577;28;20277;-84
2022/05/14 16:19:28;;;;;;;6.28;2.72;;;22.20;18.90;;;;;;5028349;28;20204;-84
2022/05/14 16:22:07;;;;;;;3.40;2.08;;;22.20;17.90;;;;;;4998445;28;20255;-86
2022/05/14 16:24:46;;;;;;;5.90;2.30;;;22.20;19.00;;;;;;4996654;28;20232;-86
2022/05/14 16:27:24;;;;;;;4.85;2.88;;;22.10;18.90;;;;;;5016575;28;20219;-89
2022/05/14 16:30:43;;;;;;;6.25;2.85;;;22.20;19.90;;;;;;4995845;28;20231;-87
2022/05/14 16:37:19;;;;;;;4.53;2.13;;;22.00;18.70;;;;;;4972049;28;20274;-88
2022/05/14 16:50:35;;;;;;;5.70;2.90;;;21.80;20.10;;;;;;4937896;29;20185;-89
2022/05/14 17:00:36;;;;;;;3.10;2.65;;;21.60;20.30;;;;;;4938517;29;20221;-87
2022/05/14 17:06:31;;;;;;;5.07;2.60;;;21.60;20.00;;;;;;4896477;29;20252;-87
2022/05/14 17:25:55;;;;;;;5.03;2.83;;;21.20;21.90;;;;;;4918716;29;20202;-88
2022/05/14 17:31:40;;;;;;;4.55;2.33;;;21.00;22.20;;;;;;4883333;29;20252;-87
2022/05/14 17:40:42;;;;;;;4.38;2.70;;;20.80;22.10;;;;;;4920833;29;20229;-89
2022/05/14 17:47:38;;;;;;;4.63;2.47;;;20.70;22.60;;;;;;5130898;27;20519;-91
2022/05/14 17:50:21;;;;;;;3.53;2.25;;;20.60;22.50;;;;;;5074738;28;20228;-88
2022/05/14 17:53:06;;;;;;;3.33;2.40;;;20.60;22.90;;;;;;5082836;28;20205;-88
2022/05/14 18:05:25;;;;;;;7.93;3.10;;;20.30;24.60;;;;;;4996883;28;20289;-87
2022/05/14 18:08:32;;;;;;;5.40;2.95;;;20.20;24.30;;;;;;4988745;28;20221;-86
2022/05/14 18:15:00;;;;;;;4.68;3.15;;;20.00;24.60;;;;;;5003151;28;20230;-86
2022/05/14 18:20:38;;;;;;;4.75;2.53;;;19.80;25.00;;;;;;4986837;28;20237;-87
2022/05/14 18:23:24;;;;;;;3.33;2.50;;;19.80;25.10;;;;;;4988474;28;20215;-88
2022/05/14 18:39:54;;;;;;;7.25;3.60;;;19.30;25.90;;;;;;4986027;28;20203;-87
2022/05/14 18:45:46;;;;;;;4.65;2.33;;;19.20;26.70;;;;;;4969741;28;20233;-86
2022/05/14 18:48:48;;;;;;;5.68;3.63;;;19.10;27.10;;;;;;4969093;28;20208;-86
2022/05/14 18:51:30;;;;;;;8.25;3.38;;;19.00;29.80;;;;;;4953545;28;20213;-87
2022/05/14 19:17:02;;;;;;;5.28;3.65;;;18.20;34.00;;;;;;5009206;28;20232;-88
2022/05/14 19:24:08;;;;;;;4.68;3.22;;;17.90;36.10;;;;;;4937322;29;20194;-91
